Time;durP1;ratioP1;P1;durP2;ratioP2;P2;SDS_P1;SDS_P2;PMS_P1;PMS_P2;Temp;Humidity;BMP_temperature;BMP_pressure;BME280_temperature;BME280_humidity;BME280_pressure;Samples;Min_cycle;Max_cycle;Signal;HPM_P1;HPM_P2
2022/03/18 00:02:26;;;;;;;11.27;4.15;;;4.70;99.90;;;;;;5032245;28;20052;-85
2022/03/18 00:04:53;;;;;;;12.95;5.05;;;4.70;99.90;;;;;;5048070;28;20052;-86
2022/03/18 00:07:20;;;;;;;10.57;4.32;;;4.70;99.90;;;;;;5024011;28;20057;-86
2022/03/18 00:09:50;;;;;;;11.68;4.65;;;4.70;99.90;;;;;;5059799;28;20059;-85
2022/03/18 00:12:16;;;;;;;12.75;3.88;;;4.70;99.90;;;;;;5012387;28;20037;-85
2022/03/18 00:14:43;;;;;;;9.38;3.92;;;4.70;99.90;;;;;;5012411;28;20051;-85
2022/03/18 00:17:09;;;;;;;12.02;4.10;;;4.70;99.90;;;;;;5033343;28;20095;-85
2022/03/18 00:19:36;;;;;;;10.35;4.45;;;4.70;99.90;;;;;;5050960;28;20035;-86
2022/03/18 00:22:02;;;;;;;16.13;4.40;;;4.60;99.90;;;;;;5015191;28;20041;-85
2022/03/18 00:24:31;;;;;;;12.88;4.20;;;4.60;99.90;;;;;;5033302;28;20094;-86
2022/03/18 00:26:57;;;;;;;13.40;4.43;;;4.50;99.90;;;;;;5033247;28;20496;-84
2022/03/18 00:29:22;;;;;;;11.15;4.40;;;4.50;99.90;;;;;;5052289;28;20076;-85
2022/03/18 00:31:51;;;;;;;13.38;5.35;;;4.40;99.90;;;;;;5054379;28;20051;-86
2022/03/18 00:34:17;;;;;;;14.55;4.57;;;4.30;99.90;;;;;;5035584;28;20423;-85
2022/03/18 00:36:42;;;;;;;9.60;4.32;;;4.30;99.90;;;;;;5032977;28;20045;-85
2022/03/18 00:39:08;;;;;;;9.30;4.05;;;4.30;99.90;;;;;;5031745;28;20395;-85
2022/03/18 00:41:33;;;;;;;9.13;4.38;;;4.30;99.90;;;;;;5051842;28;20051;-85
2022/03/18 00:43:59;;;;;;;12.00;4.18;;;4.40;99.90;;;;;;5045422;28;20060;-85
2022/03/18 00:46:25;;;;;;;7.85;3.95;;;4.40;99.90;;;;;;5019638;28;20045;-85
2022/03/18 00:52:21;;;;;;;10.95;4.15;;;4.40;99.90;;;;;;5049717;28;20493;-85
2022/03/18 00:54:22;;;;;;;12.75;4.40;;;4.30;99.90;;;;;;5026386;28;20044;-85
2022/03/18 00:56:47;;;;;;;9.82;4.32;;;4.30;99.90;;;;;;5028430;28;20511;-84
2022/03/18 00:59:13;;;;;;;9.27;4.00;;;4.30;99.90;;;;;;5033607;28;20044;-85
2022/03/18 01:01:39;;;;;;;8.85;4.20;;;4.30;99.90;;;;;;5018425;28;20171;-85
2022/03/18 01:04:05;;;;;;;11.48;4.25;;;4.30;99.90;;;;;;5013466;28;20069;-85
2022/03/18 01:06:32;;;;;;;12.43;4.90;;;4.30;99.90;;;;;;5035522;28;20056;-85
2022/03/18 01:08:58;;;;;;;8.77;3.85;;;4.20;99.90;;;;;;5034660;28;20371;-85
2022/03/18 01:11:24;;;;;;;14.73;5.50;;;4.20;99.90;;;;;;5014916;28;20774;-86
2022/03/18 01:13:49;;;;;;;11.95;4.93;;;4.20;99.90;;;;;;5030637;28;20182;-86
2022/03/18 01:16:15;;;;;;;15.55;4.25;;;4.10;99.90;;;;;;5031986;28;20051;-85
2022/03/18 01:18:41;;;;;;;11.20;3.60;;;4.10;99.90;;;;;;5021943;28;20115;-85
2022/03/18 01:21:06;;;;;;;11.25;4.25;;;4.00;99.90;;;;;;5031451;28;20066;-86
2022/03/18 01:23:32;;;;;;;9.35;4.15;;;4.00;99.90;;;;;;5024790;28;20053;-86
2022/03/18 01:25:58;;;;;;;10.20;4.13;;;4.00;99.90;;;;;;5033410;28;20076;-85
2022/03/18 01:28:24;;;;;;;11.32;4.25;;;3.90;99.90;;;;;;5037808;28;20330;-85
2022/03/18 01:30:49;;;;;;;12.35;4.47;;;3.90;99.90;;;;;;5020191;28;20041;-85
2022/03/18 01:33:15;;;;;;;10.85;4.20;;;3.90;99.90;;;;;;5036106;28;20048;-85
2022/03/18 01:35:41;;;;;;;9.48;3.97;;;4.00;99.90;;;;;;5033331;28;20112;-86
2022/03/18 01:38:06;;;;;;;12.52;3.97;;;3.90;99.90;;;;;;5013491;28;20115;-85
2022/03/18 01:40:33;;;;;;;8.88;4.05;;;3.90;99.90;;;;;;5050079;28;20037;-86
2022/03/18 01:42:58;;;;;;;8.23;3.97;;;3.90;99.90;;;;;;5051950;28;20385;-85
2022/03/18 01:45:25;;;;;;;9.85;4.07;;;3.90;99.90;;;;;;5034067;28;20045;-85
2022/03/18 01:47:51;;;;;;;10.68;4.32;;;3.90;99.90;;;;;;5036978;28;20029;-85
2022/03/18 01:50:17;;;;;;;7.80;4.00;;;3.90;99.90;;;;;;5056765;28;20090;-85
2022/03/18 01:52:45;;;;;;;12.32;4.07;;;3.90;99.90;;;;;;5014003;28;20037;-85
2022/03/18 01:55:10;;;;;;;16.63;4.40;;;3.90;99.90;;;;;;5052304;28;20473;-85
2022/03/18 01:57:36;;;;;;;10.60;4.07;;;3.90;99.90;;;;;;5052074;28;20124;-85
2022/03/18 02:00:06;;;;;;;10.18;3.92;;;3.90;99.90;;;;;;5014653;28;20045;-85
2022/03/18 02:02:32;;;;;;;12.93;4.15;;;3.90;99.90;;;;;;5028367;28;20033;-85
2022/03/18 02:04:58;;;;;;;10.95;4.30;;;3.80;99.90;;;;;;5031887;28;20041;-86
2022/03/18 02:07:23;;;;;;;10.13;3.72;;;3.80;99.90;;;;;;5014282;28;20041;-85
2022/03/18 02:09:49;;;;;;;8.77;3.92;;;3.80;99.90;;;;;;5048858;28;20397;-85
2022/03/18 02:12:15;;;;;;;9.15;4.40;;;3.80;99.90;;;;;;5015073;28;20128;-86
2022/03/18 02:14:43;;;;;;;9.13;3.63;;;3.80;99.90;;;;;;5034453;28;20036;-85
2022/03/18 02:17:11;;;;;;;10.80;3.95;;;3.70;99.90;;;;;;5034053;28;20044;-85
2022/03/18 02:19:38;;;;;;;7.82;3.72;;;3.80;99.90;;;;;;5014748;28;20040;-85
2022/03/18 02:22:16;;;;;;;12.80;4.07;;;3.80;99.90;;;;;;5018530;28;20029;-85
2022/03/18 02:24:43;;;;;;;8.30;3.60;;;3.80;99.90;;;;;;5034252;28;20513;-85
2022/03/18 02:27:10;;;;;;;8.93;3.42;;;3.70;99.90;;;;;;5031923;28;20045;-85
2022/03/18 02:29:36;;;;;;;5.38;2.22;;;3.70;99.90;;;;;;5027244;28;20512;-85
2022/03/18 02:32:04;;;;;;;8.18;3.10;;;3.70;99.90;;;;;;5031660;28;20110;-85
2022/03/18 02:34:30;;;;;;;11.90;4.43;;;3.70;99.90;;;;;;5014475;28;20145;-85
2022/03/18 02:36:56;;;;;;;9.85;3.67;;;3.70;99.90;;;;;;5058393;28;20048;-85
2022/03/18 02:39:21;;;;;;;8.75;4.03;;;3.70;99.90;;;;;;5029099;28;20036;-85
2022/03/18 02:41:47;;;;;;;9.75;3.70;;;3.70;99.90;;;;;;5028201;28;20043;-85
2022/03/18 02:44:13;;;;;;;6.18;2.83;;;3.70;99.90;;;;;;5052194;28;20131;-85
2022/03/18 02:46:39;;;;;;;9.32;3.47;;;3.70;99.90;;;;;;5026743;28;20140;-86
2022/03/18 02:49:05;;;;;;;7.18;3.30;;;3.60;99.90;;;;;;5015791;28;20119;-86
2022/03/18 02:51:32;;;;;;;9.30;3.78;;;3.60;99.90;;;;;;5036621;28;20136;-85
2022/03/18 02:53:58;;;;;;;9.57;3.65;;;3.60;99.90;;;;;;5052630;28;20045;-85
2022/03/18 02:56:24;;;;;;;8.02;3.03;;;3.60;99.90;;;;;;5029793;28;20720;-85
2022/03/18 02:58:51;;;;;;;12.10;4.00;;;3.60;99.90;;;;;;5031269;28;20036;-85
2022/03/18 03:01:17;;;;;;;12.32;4.43;;;3.50;99.90;;;;;;5013897;28;20082;-86
2022/03/18 03:03:42;;;;;;;13.43;3.83;;;3.50;99.90;;;;;;5012787;28;20056;-85
2022/03/18 03:08:53;;;;;;;7.03;4.15;;;3.50;99.90;;;;;;5026600;28;20063;-85
2022/03/18 03:11:20;;;;;;;9.80;4.03;;;3.40;99.90;;;;;;5031164;28;20037;-84
2022/03/18 03:13:45;;;;;;;8.85;4.90;;;3.40;99.90;;;;;;5024813;28;20060;-85
2022/03/18 03:16:11;;;;;;;11.43;5.03;;;3.40;99.90;;;;;;5028789;28;20057;-84
2022/03/18 03:18:37;;;;;;;10.10;4.70;;;3.30;99.90;;;;;;5027688;28;20065;-85
2022/03/18 03:21:03;;;;;;;9.63;3.92;;;3.30;99.90;;;;;;5032512;28;20188;-85
2022/03/18 03:23:28;;;;;;;7.35;3.65;;;3.30;99.90;;;;;;5015508;28;20639;-85
2022/03/18 03:25:55;;;;;;;13.90;4.72;;;3.30;99.90;;;;;;5016364;28;20037;-85
2022/03/18 03:28:24;;;;;;;10.82;4.03;;;3.30;99.90;;;;;;5023730;28;20048;-85
2022/03/18 03:30:50;;;;;;;10.90;4.03;;;3.20;99.90;;;;;;5015187;28;20041;-85
2022/03/18 03:33:16;;;;;;;13.10;4.93;;;3.30;99.90;;;;;;5011117;28;20045;-85
2022/03/18 03:35:43;;;;;;;7.20;3.10;;;3.20;99.90;;;;;;5015531;28;20049;-85
2022/03/18 03:38:10;;;;;;;6.22;2.53;;;3.20;99.90;;;;;;5028803;28;20068;-86
2022/03/18 03:40:36;;;;;;;5.80;3.08;;;3.20;99.90;;;;;;5031079;28;20059;-85
2022/03/18 03:43:03;;;;;;;7.75;3.67;;;3.20;99.90;;;;;;5016994;28;20045;-85
2022/03/18 03:45:28;;;;;;;14.57;4.40;;;3.20;99.90;;;;;;5013224;28;20049;-85
2022/03/18 03:47:54;;;;;;;7.00;3.10;;;3.20;99.90;;;;;;5032260;28;20504;-86
2022/03/18 03:50:20;;;;;;;7.38;3.30;;;3.20;99.90;;;;;;5011008;28;20048;-84
2022/03/18 03:52:45;;;;;;;8.48;3.95;;;3.20;99.90;;;;;;5028349;28;20069;-84
2022/03/18 03:55:12;;;;;;;11.20;4.53;;;3.20;99.90;;;;;;5017028;28;20033;-84
2022/03/18 03:57:39;;;;;;;8.15;4.90;;;3.20;99.90;;;;;;5012443;28;20037;-85
2022/03/18 04:00:09;;;;;;;10.82;3.88;;;3.10;99.90;;;;;;5030032;28;20107;-86
2022/03/18 04:02:37;;;;;;;10.18;4.40;;;3.10;99.90;;;;;;5041352;28;20037;-85
2022/03/18 04:05:07;;;;;;;9.20;3.83;;;3.10;99.90;;;;;;5036226;28;20064;-84
2022/03/18 04:07:37;;;;;;;11.75;4.72;;;3.10;99.90;;;;;;5037117;28;20057;-84
2022/03/18 04:10:04;;;;;;;10.15;4.05;;;3.10;99.90;;;;;;5033899;28;20050;-84
2022/03/18 04:12:30;;;;;;;10.27;4.38;;;3.00;99.90;;;;;;5038320;28;20045;-85
2022/03/18 04:14:55;;;;;;;9.88;4.45;;;3.00;99.90;;;;;;5034584;28;20037;-85
2022/03/18 04:17:22;;;;;;;11.32;3.92;;;3.00;99.90;;;;;;5016500;28;20539;-85
2022/03/18 04:19:48;;;;;;;11.77;5.15;;;3.00;99.90;;;;;;5028348;28;20107;-85
2022/03/18 04:22:14;;;;;;;11.48;6.05;;;3.00;99.90;;;;;;5028246;28;20089;-84
2022/03/18 04:24:39;;;;;;;9.40;3.65;;;3.00;99.90;;;;;;5014155;28;20088;-85
2022/03/18 04:27:05;;;;;;;11.82;3.58;;;3.00;99.90;;;;;;5030950;28;20045;-85
2022/03/18 04:29:31;;;;;;;8.50;3.97;;;2.90;99.90;;;;;;5029588;28;20123;-85
2022/03/18 04:31:58;;;;;;;10.40;4.68;;;3.00;99.90;;;;;;5032564;28;20120;-84
2022/03/18 04:34:24;;;;;;;11.95;4.93;;;3.00;99.90;;;;;;5026707;28;20495;-84
2022/03/18 04:36:50;;;;;;;10.75;5.00;;;3.00;99.90;;;;;;5029832;28;20115;-85
2022/03/18 04:39:15;;;;;;;9.18;3.90;;;3.00;99.90;;;;;;5025648;28;20470;-85
2022/03/18 04:41:41;;;;;;;10.52;4.35;;;3.00;99.90;;;;;;5020999;28;20073;-85
2022/03/18 04:44:07;;;;;;;13.63;5.35;;;3.00;99.90;;;;;;5031013;28;20072;-85
2022/03/18 04:46:33;;;;;;;7.45;4.22;;;3.00;99.90;;;;;;5032850;28;20046;-85
2022/03/18 04:48:59;;;;;;;9.32;4.72;;;3.00;99.90;;;;;;5029128;28;20497;-86
2022/03/18 04:51:25;;;;;;;9.73;4.55;;;2.90;99.90;;;;;;5024919;28;20101;-85
2022/03/18 04:53:51;;;;;;;11.55;5.28;;;2.90;99.90;;;;;;5042413;28;20139;-85
2022/03/18 04:59:01;;;;;;;10.50;4.35;;;2.90;99.90;;;;;;5027228;28;20081;-85
2022/03/18 05:01:27;;;;;;;11.98;4.75;;;2.90;99.90;;;;;;5014600;28;20044;-84
2022/03/18 05:03:53;;;;;;;7.53;3.85;;;2.80;99.90;;;;;;5024056;28;20037;-85
2022/03/18 05:06:18;;;;;;;13.25;4.50;;;2.90;99.90;;;;;;5029840;28;20057;-85
2022/03/18 05:08:45;;;;;;;15.02;5.75;;;2.80;99.90;;;;;;5034380;28;20045;-85
2022/03/18 05:11:12;;;;;;;9.15;4.13;;;2.90;99.90;;;;;;5038165;28;20128;-85
2022/03/18 05:13:38;;;;;;;10.95;4.40;;;2.90;99.90;;;;;;5034695;28;20049;-85
2022/03/18 05:16:04;;;;;;;11.23;5.00;;;2.80;99.90;;;;;;5024844;28;20124;-85
2022/03/18 05:18:30;;;;;;;8.48;3.90;;;2.80;99.90;;;;;;5034837;28;20026;-85
2022/03/18 05:20:56;;;;;;;11.95;4.88;;;2.80;99.90;;;;;;5038408;28;20087;-85
2022/03/18 05:23:22;;;;;;;8.43;4.82;;;2.80;99.90;;;;;;5031653;28;20120;-85
2022/03/18 05:25:47;;;;;;;9.50;4.38;;;2.80;99.90;;;;;;5033790;28;20116;-86
2022/03/18 05:28:13;;;;;;;12.02;3.95;;;2.80;99.90;;;;;;5018269;28;20069;-85
2022/03/18 05:30:40;;;;;;;13.02;4.53;;;2.70;99.90;;;;;;5032226;28;20506;-85
2022/03/18 05:33:06;;;;;;;10.10;4.63;;;2.70;99.90;;;;;;5033676;28;20075;-85
2022/03/18 05:35:32;;;;;;;8.98;3.92;;;2.70;99.90;;;;;;5028724;28;20061;-85
2022/03/18 05:37:58;;;;;;;8.27;3.22;;;2.70;99.90;;;;;;5033219;28;20033;-85
2022/03/18 05:40:24;;;;;;;8.88;4.63;;;2.80;99.90;;;;;;5030954;28;20523;-85
2022/03/18 05:42:49;;;;;;;12.07;5.50;;;2.70;99.90;;;;;;5030644;28;20029;-85
2022/03/18 05:45:18;;;;;;;10.90;4.63;;;2.70;99.90;;;;;;5005444;28;20050;-85
2022/03/18 05:47:50;;;;;;;11.23;4.10;;;2.70;99.90;;;;;;5034041;28;20038;-85
2022/03/18 05:50:19;;;;;;;8.20;4.47;;;2.70;99.90;;;;;;5024265;28;20526;-84
2022/03/18 05:52:45;;;;;;;8.88;3.67;;;2.70;99.90;;;;;;5015629;28;20386;-85
2022/03/18 05:58:31;;;;;;;13.27;4.95;;;2.70;99.90;;;;;;5034065;28;20037;-85
2022/03/18 06:00:57;;;;;;;10.30;5.43;;;2.70;99.90;;;;;;5035651;28;20436;-85
2022/03/18 06:03:26;;;;;;;8.50;4.00;;;2.70;99.90;;;;;;5025983;28;20049;-85
2022/03/18 06:05:52;;;;;;;10.63;5.25;;;2.70;99.90;;;;;;5046381;28;20087;-85
2022/03/18 06:14:01;;;;;;;11.70;5.32;;;2.70;99.90;;;;;;5051048;28;20052;-85
2022/03/18 06:16:27;;;;;;;12.57;5.68;;;2.70;99.90;;;;;;5031828;28;20041;-85
2022/03/18 06:18:52;;;;;;;10.88;5.28;;;2.80;99.90;;;;;;5058567;28;20037;-85
2022/03/18 06:21:21;;;;;;;11.55;6.18;;;2.80;99.90;;;;;;5026857;28;20136;-85
2022/03/18 06:23:47;;;;;;;15.32;7.18;;;2.80;99.90;;;;;;5031269;28;20045;-85
2022/03/18 06:26:12;;;;;;;11.52;4.72;;;2.90;99.90;;;;;;5021992;28;20047;-85
2022/03/18 06:28:38;;;;;;;15.70;7.25;;;2.90;99.90;;;;;;5047609;28;20493;-85
2022/03/18 06:31:06;;;;;;;16.42;6.53;;;2.90;99.90;;;;;;5033455;28;20028;-85
2022/03/18 06:33:32;;;;;;;14.88;6.07;;;3.00;99.90;;;;;;5032953;28;20152;-85
2022/03/18 06:35:58;;;;;;;12.02;5.88;;;3.00;99.90;;;;;;5053620;28;20037;-85
2022/03/18 06:38:23;;;;;;;13.57;5.65;;;3.00;99.90;;;;;;5016559;28;20036;-85
2022/03/18 06:40:50;;;;;;;13.32;5.38;;;3.10;99.90;;;;;;5026348;28;20033;-85
2022/03/18 06:43:16;;;;;;;12.60;6.97;;;3.10;99.90;;;;;;5051186;28;20040;-85
2022/03/18 06:45:42;;;;;;;13.48;7.03;;;3.10;99.90;;;;;;5013688;28;20041;-85
2022/03/18 06:48:07;;;;;;;15.68;6.70;;;3.10;99.90;;;;;;5015104;28;20088;-85
2022/03/18 06:50:34;;;;;;;12.25;6.15;;;3.20;99.90;;;;;;5052275;28;20093;-85
2022/03/18 06:53:00;;;;;;;10.98;5.15;;;3.20;99.90;;;;;;5010465;28;20195;-85
2022/03/18 06:55:27;;;;;;;11.40;5.50;;;3.30;99.90;;;;;;5021780;28;20492;-85
2022/03/18 06:57:53;;;;;;;15.88;5.75;;;3.30;99.90;;;;;;5014107;28;20086;-85
2022/03/18 07:00:18;;;;;;;16.58;7.70;;;3.40;99.90;;;;;;5029918;28;20060;-85
2022/03/18 07:02:44;;;;;;;12.27;6.10;;;3.40;99.90;;;;;;5048254;28;20059;-85
2022/03/18 07:05:10;;;;;;;16.40;7.15;;;3.40;99.90;;;;;;5032889;28;20088;-85
2022/03/18 07:07:36;;;;;;;15.65;7.25;;;3.50;99.90;;;;;;5013416;28;20083;-85
2022/03/18 07:10:02;;;;;;;15.32;6.82;;;3.50;99.90;;;;;;5045279;28;20413;-84
2022/03/18 07:12:27;;;;;;;10.27;5.25;;;3.50;99.90;;;;;;5028684;28;20041;-84
2022/03/18 07:14:53;;;;;;;13.85;6.22;;;3.50;99.90;;;;;;5026643;28;20045;-84
2022/03/18 07:20:04;;;;;;;19.98;7.97;;;3.60;99.90;;;;;;5050696;28;20485;-84
2022/03/18 07:22:30;;;;;;;13.93;6.47;;;3.60;99.90;;;;;;5045678;28;20063;-84
2022/03/18 07:24:56;;;;;;;12.85;6.10;;;3.60;99.90;;;;;;5044247;28;20476;-84
2022/03/18 07:27:21;;;;;;;15.32;7.78;;;3.70;99.90;;;;;;5029093;28;20036;-84
2022/03/18 07:29:47;;;;;;;19.00;8.05;;;3.70;99.90;;;;;;5030469;28;20041;-84
2022/03/18 07:32:12;;;;;;;12.75;6.25;;;3.80;99.90;;;;;;5030198;28;20033;-83
2022/03/18 07:34:38;;;;;;;14.27;8.15;;;3.90;99.90;;;;;;5035397;28;20037;-82
2022/03/18 07:37:04;;;;;;;16.30;7.95;;;4.00;99.90;;;;;;5056235;28;20319;-84
2022/03/18 07:39:30;;;;;;;23.25;8.23;;;4.00;99.90;;;;;;5019230;28;20101;-85
2022/03/18 07:41:55;;;;;;;14.30;7.57;;;4.00;99.90;;;;;;5032258;28;20026;-85
2022/03/18 07:44:21;;;;;;;19.80;8.70;;;4.10;99.90;;;;;;5031752;28;20151;-85
2022/03/18 07:46:46;;;;;;;13.13;7.47;;;4.10;99.90;;;;;;5048121;28;20592;-82
2022/03/18 07:49:12;;;;;;;18.10;9.05;;;4.20;99.90;;;;;;5052187;28;20037;-82
2022/03/18 07:51:38;;;;;;;17.75;9.40;;;4.30;99.90;;;;;;5040224;28;20477;-82
2022/03/18 07:54:03;;;;;;;15.30;8.05;;;4.40;99.90;;;;;;5030052;28;20037;-82
2022/03/18 07:56:32;;;;;;;19.52;8.90;;;4.50;99.90;;;;;;5048196;28;20125;-82
2022/03/18 07:58:57;;;;;;;15.00;8.88;;;4.60;99.90;;;;;;5028421;28;20080;-82
2022/03/18 08:01:23;;;;;;;15.00;7.35;;;4.70;99.90;;;;;;5050696;28;20484;-84
2022/03/18 08:03:49;;;;;;;18.90;9.30;;;4.80;99.90;;;;;;5033777;28;20080;-84
2022/03/18 08:06:14;;;;;;;19.75;11.07;;;4.90;99.90;;;;;;5035328;28;20088;-85
2022/03/18 08:08:40;;;;;;;15.95;9.32;;;5.00;99.90;;;;;;5046785;28;20049;-85
2022/03/18 08:11:06;;;;;;;21.52;11.25;;;5.20;99.90;;;;;;5016028;28;20096;-85
2022/03/18 08:13:31;;;;;;;21.27;10.98;;;5.30;99.90;;;;;;5040553;28;20492;-85
2022/03/18 08:15:57;;;;;;;20.40;12.20;;;5.40;99.90;;;;;;5055083;28;20048;-85
2022/03/18 08:18:23;;;;;;;28.90;15.80;;;5.50;99.90;;;;;;5030835;28;20088;-85
2022/03/18 08:20:52;;;;;;;28.75;15.38;;;5.60;99.90;;;;;;5014996;28;20377;-85
2022/03/18 08:23:18;;;;;;;22.85;13.30;;;5.70;99.90;;;;;;5011919;28;20095;-85
2022/03/18 08:25:43;;;;;;;25.10;12.60;;;5.80;99.90;;;;;;5034466;28;20064;-85
2022/03/18 08:28:10;;;;;;;20.92;11.98;;;5.90;99.90;;;;;;5053133;28;20127;-85
2022/03/18 08:30:36;;;;;;;24.20;12.65;;;6.00;99.90;;;;;;5021731;28;20094;-85
2022/03/18 08:33:02;;;;;;;20.85;12.52;;;6.10;99.90;;;;;;5036101;28;20032;-85
2022/03/18 08:35:28;;;;;;;30.98;15.90;;;6.20;99.90;;;;;;5048828;28;20087;-85
2022/03/18 08:37:57;;;;;;;29.60;13.75;;;6.30;99.90;;;;;;5047929;28;20037;-83
2022/03/18 08:40:33;;;;;;;24.50;14.43;;;6.50;99.90;;;;;;5030554;28;20524;-83
2022/03/18 08:43:04;;;;;;;27.15;14.88;;;6.60;99.90;;;;;;5014874;28;20054;-83
2022/03/18 08:45:31;;;;;;;30.25;15.15;;;6.80;99.90;;;;;;5039091;28;20049;-82
2022/03/18 08:47:56;;;;;;;27.70;12.88;;;6.90;99.90;;;;;;5054564;28;20385;-82
2022/03/18 08:50:23;;;;;;;30.60;15.02;;;7.00;99.90;;;;;;5051565;28;20044;-82
2022/03/18 08:52:51;;;;;;;28.35;14.07;;;7.10;99.90;;;;;;5034589;28;20029;-82
2022/03/18 08:55:24;;;;;;;30.05;18.15;;;7.30;99.90;;;;;;5050228;28;20108;-83
2022/03/18 08:57:53;;;;;;;33.22;17.98;;;7.40;99.90;;;;;;5049348;28;20123;-82
2022/03/18 09:00:19;;;;;;;33.88;17.45;;;7.50;99.90;;;;;;5053504;28;20076;-83
2022/03/18 09:02:47;;;;;;;28.83;16.40;;;7.70;99.90;;;;;;5036717;28;20043;-83
2022/03/18 09:05:13;;;;;;;31.35;15.25;;;7.80;99.90;;;;;;5034463;28;20086;-83
2022/03/18 09:07:39;;;;;;;29.08;16.33;;;8.00;99.90;;;;;;5029043;28;20084;-83
2022/03/18 09:10:07;;;;;;;34.97;17.00;;;8.10;99.90;;;;;;5028615;28;20081;-83
2022/03/18 09:12:33;;;;;;;23.33;14.07;;;8.30;99.90;;;;;;5030404;28;20048;-83
2022/03/18 09:14:59;;;;;;;24.58;13.27;;;8.40;99.90;;;;;;5017542;28;20041;-82
2022/03/18 09:17:25;;;;;;;25.95;14.20;;;8.60;99.90;;;;;;5033084;28;20033;-83
2022/03/18 09:19:51;;;;;;;27.40;12.68;;;8.70;99.90;;;;;;5033130;28;20400;-83
2022/03/18 09:22:19;;;;;;;21.30;12.05;;;8.90;99.90;;;;;;5032449;28;20095;-83
2022/03/18 09:24:46;;;;;;;25.50;12.68;;;9.00;99.90;;;;;;5029466;28;20056;-83
2022/03/18 09:27:12;;;;;;;20.83;11.52;;;9.20;99.90;;;;;;5018383;28;20128;-83
2022/03/18 09:29:38;;;;;;;23.02;11.40;;;9.30;99.90;;;;;;5018508;28;20506;-83
2022/03/18 09:32:05;;;;;;;18.88;10.05;;;9.50;99.90;;;;;;5029060;28;20049;-83
2022/03/18 09:34:31;;;;;;;17.45;9.60;;;9.60;99.90;;;;;;5012426;28;20083;-83
2022/03/18 09:36:58;;;;;;;17.05;9.27;;;9.70;99.90;;;;;;5037452;28;20037;-83
2022/03/18 09:39:26;;;;;;;15.45;9.02;;;9.80;99.90;;;;;;5027669;28;20545;-83
2022/03/18 09:41:53;;;;;;;15.27;8.40;;;9.90;99.90;;;;;;5017828;28;20037;-83
2022/03/18 09:44:19;;;;;;;19.85;9.10;;;10.10;99.90;;;;;;5031084;28;20049;-83
2022/03/18 09:46:47;;;;;;;22.98;10.60;;;10.20;99.90;;;;;;5019159;28;20132;-84
2022/03/18 09:49:17;;;;;;;18.75;9.38;;;10.30;99.90;;;;;;5029088;28;20048;-83
2022/03/18 09:51:43;;;;;;;15.68;8.65;;;10.40;99.90;;;;;;5028195;28;20167;-82
2022/03/18 09:54:10;;;;;;;15.40;7.07;;;10.50;99.90;;;;;;5031960;28;20049;-83
2022/03/18 09:56:40;;;;;;;12.35;7.35;;;10.60;99.90;;;;;;5031076;28;20033;-83
2022/03/18 09:59:06;;;;;;;17.23;8.50;;;10.70;99.90;;;;;;5026679;28;20082;-83
2022/03/18 10:01:32;;;;;;;12.75;6.80;;;10.80;99.90;;;;;;5014284;28;20038;-82
2022/03/18 10:04:12;;;;;;;13.35;7.18;;;10.90;99.90;;;;;;5029570;28;20474;-83
2022/03/18 10:06:41;;;;;;;14.07;7.20;;;11.00;99.90;;;;;;5006248;28;20043;-83
2022/03/18 10:09:07;;;;;;;12.23;6.22;;;11.20;99.90;;;;;;5042307;28;20446;-83
2022/03/18 10:11:37;;;;;;;16.90;6.82;;;11.30;99.90;;;;;;5035186;28;20037;-83
2022/03/18 10:14:16;;;;;;;15.95;8.52;;;11.40;99.90;;;;;;5052862;28;20094;-83
2022/03/18 10:16:44;;;;;;;13.90;5.80;;;11.50;99.90;;;;;;5050620;28;20098;-83
2022/03/18 10:19:14;;;;;;;12.27;6.00;;;11.70;99.90;;;;;;5015580;28;20474;-83
2022/03/18 10:21:58;;;;;;;12.02;6.72;;;11.70;99.90;;;;;;5036162;28;20036;-83
2022/03/18 10:24:30;;;;;;;13.65;6.40;;;11.80;99.90;;;;;;5032715;28;20511;-83
2022/03/18 10:27:13;;;;;;;14.82;7.07;;;11.80;99.90;;;;;;5049467;28;20516;-83
2022/03/18 10:29:42;;;;;;;14.15;7.15;;;11.90;99.90;;;;;;5025499;28;20123;-83
2022/03/18 10:32:08;;;;;;;13.68;6.15;;;12.00;99.90;;;;;;5032864;28;20107;-83
2022/03/18 10:37:25;;;;;;;11.02;5.07;;;12.20;99.90;;;;;;5030385;28;20041;-83
2022/03/18 10:39:59;;;;;;;10.50;4.90;;;12.40;99.90;;;;;;5029247;28;20143;-83
2022/03/18 10:42:25;;;;;;;12.38;5.43;;;12.50;99.90;;;;;;5053977;28;20119;-83
2022/03/18 10:44:59;;;;;;;16.45;6.35;;;12.60;99.90;;;;;;5056686;28;20434;-83
2022/03/18 10:47:33;;;;;;;10.82;5.60;;;12.70;99.90;;;;;;5032437;28;20735;-83
2022/03/18 10:50:11;;;;;;;10.93;5.63;;;12.70;99.90;;;;;;5036259;28;20040;-83
2022/03/18 10:52:37;;;;;;;14.13;5.38;;;12.80;99.90;;;;;;5044399;28;20095;-82
2022/03/18 10:55:23;;;;;;;11.27;4.97;;;12.90;99.90;;;;;;5019721;28;20524;-83
2022/03/18 10:57:57;;;;;;;11.65;4.82;;;13.00;99.90;;;;;;5048616;28;20063;-83
2022/03/18 11:00:25;;;;;;;16.90;5.25;;;13.00;99.90;;;;;;5031733;28;20282;-85
2022/03/18 11:02:52;;;;;;;10.65;5.20;;;13.10;99.90;;;;;;5029958;28;20041;-83
2022/03/18 11:05:22;;;;;;;10.48;4.68;;;13.20;99.90;;;;;;5024306;28;20080;-85
2022/03/18 11:07:53;;;;;;;11.18;6.00;;;13.30;99.90;;;;;;5034123;28;20045;-83
2022/03/18 11:13:04;;;;;;;8.25;4.28;;;13.50;99.90;;;;;;5030085;28;20088;-83
2022/03/18 11:15:31;;;;;;;11.48;5.50;;;13.50;99.90;;;;;;5047039;28;20071;-83
2022/03/18 11:17:59;;;;;;;11.00;4.50;;;13.60;99.90;;;;;;5038885;28;20032;-83
2022/03/18 11:20:27;;;;;;;9.45;5.50;;;13.70;99.90;;;;;;5016387;28;20178;-83
2022/03/18 11:22:54;;;;;;;9.18;4.95;;;13.70;99.90;;;;;;5047259;28;20041;-83
2022/03/18 11:25:22;;;;;;;8.77;4.72;;;13.80;99.90;;;;;;5029731;28;20055;-83
2022/03/18 11:27:48;;;;;;;11.25;5.28;;;13.90;99.90;;;;;;5017044;28;20076;-83
2022/03/18 11:30:22;;;;;;;9.77;4.68;;;14.00;99.90;;;;;;5020757;28;20429;-85
2022/03/18 11:33:05;;;;;;;10.85;4.57;;;14.00;99.30;;;;;;5053675;28;20047;-83
2022/03/18 11:35:49;;;;;;;10.88;4.40;;;14.20;98.60;;;;;;5030112;28;20041;-83
2022/03/18 11:38:17;;;;;;;10.77;4.45;;;14.30;97.80;;;;;;5046431;28;20044;-83
2022/03/18 11:40:53;;;;;;;11.02;5.30;;;14.40;98.20;;;;;;5026721;28;20037;-83
2022/03/18 11:43:43;;;;;;;10.70;5.10;;;14.40;97.10;;;;;;5037718;28;20049;-84
2022/03/18 11:46:15;;;;;;;9.80;5.05;;;14.50;97.30;;;;;;5058850;28;20063;-84
2022/03/18 11:48:53;;;;;;;11.30;4.65;;;14.60;96.50;;;;;;5021375;28;20070;-83
2022/03/18 11:51:26;;;;;;;9.38;4.60;;;14.50;96.40;;;;;;5050381;28;20049;-84
2022/03/18 11:53:55;;;;;;;8.73;4.30;;;14.70;95.50;;;;;;5014568;28;20053;-84
2022/03/18 11:56:23;;;;;;;7.53;3.70;;;14.90;95.20;;;;;;5033900;28;20051;-85
2022/03/18 11:58:49;;;;;;;8.68;4.43;;;15.00;94.10;;;;;;5053168;28;20055;-85
2022/03/18 12:01:40;;;;;;;7.60;3.78;;;15.20;93.70;;;;;;5055617;28;20490;-85
2022/03/18 12:04:07;;;;;;;9.30;4.40;;;15.40;92.20;;;;;;5033683;28;20037;-85
2022/03/18 12:06:33;;;;;;;7.88;4.05;;;15.60;91.00;;;;;;5035510;28;20436;-85
2022/03/18 12:09:00;;;;;;;8.98;4.60;;;15.80;90.20;;;;;;5048264;28;20036;-85
2022/03/18 12:11:28;;;;;;;9.57;3.78;;;16.00;87.00;;;;;;5033134;28;20797;-85
2022/03/18 12:13:54;;;;;;;7.75;2.75;;;16.00;85.90;;;;;;5033067;28;20077;-85
2022/03/18 12:16:21;;;;;;;9.60;3.20;;;16.20;81.90;;;;;;5016967;28;20110;-85
2022/03/18 12:18:46;;;;;;;8.85;3.00;;;16.30;77.10;;;;;;5034455;28;20128;-85
2022/03/18 12:21:14;;;;;;;10.48;3.10;;;16.50;78.40;;;;;;5034464;28;20200;-85
2022/03/18 12:23:39;;;;;;;8.60;3.38;;;16.80;75.40;;;;;;5050765;28;20454;-85
2022/03/18 12:26:05;;;;;;;6.97;3.45;;;17.00;72.70;;;;;;5034902;28;20076;-85
2022/03/18 12:28:46;;;;;;;5.68;2.72;;;17.20;71.50;;;;;;5032480;28;20138;-85
2022/03/18 12:31:14;;;;;;;8.25;3.35;;;17.40;67.00;;;;;;5035555;28;20067;-85
2022/03/18 12:33:39;;;;;;;7.50;2.42;;;17.80;68.20;;;;;;5022934;28;20473;-85
2022/03/18 12:36:05;;;;;;;5.85;2.20;;;18.30;63.50;;;;;;5050933;28;20048;-85
2022/03/18 12:38:35;;;;;;;8.55;2.28;;;18.90;58.60;;;;;;5019953;28;20134;-86
2022/03/18 12:41:00;;;;;;;7.68;2.50;;;19.40;56.10;;;;;;5035944;28;20040;-86
2022/03/18 12:43:30;;;;;;;8.32;2.92;;;19.90;54.40;;;;;;5034666;28;21056;-85
2022/03/18 12:45:56;;;;;;;8.07;2.45;;;20.00;51.40;;;;;;5023646;28;20052;-85
2022/03/18 12:48:22;;;;;;;9.60;2.53;;;20.00;51.60;;;;;;5036153;28;20033;-85
2022/03/18 12:50:53;;;;;;;7.45;2.67;;;20.10;50.80;;;;;;5055869;28;20363;-85
2022/03/18 12:53:21;;;;;;;6.05;2.40;;;19.60;51.00;;;;;;5056069;28;20108;-85
2022/03/18 12:55:55;;;;;;;7.50;2.30;;;18.90;52.40;;;;;;5035854;28;20047;-85
2022/03/18 12:58:22;;;;;;;10.85;2.90;;;18.30;53.90;;;;;;5035407;28;20041;-85
2022/03/18 13:00:55;;;;;;;12.05;2.55;;;17.80;55.70;;;;;;5036160;28;20405;-85
2022/03/18 13:03:26;;;;;;;6.63;2.33;;;17.60;57.00;;;;;;5034565;28;20045;-85
2022/03/18 13:05:54;;;;;;;8.80;3.25;;;17.50;58.10;;;;;;5019171;28;20478;-85
2022/03/18 13:08:20;;;;;;;7.45;2.42;;;17.30;58.70;;;;;;5029044;28;20532;-86
2022/03/18 13:10:54;;;;;;;8.13;2.25;;;17.20;59.00;;;;;;5032945;28;20124;-85
2022/03/18 13:13:20;;;;;;;10.63;2.90;;;17.50;59.20;;;;;;5017281;28;20162;-85